createdAt,value
2022-11-20T00:01:12.064Z,7.40
2022-11-20T00:03:40.272Z,7.50
2022-11-20T00:06:11.243Z,7.40
2022-11-20T00:08:39.675Z,7.40
2022-11-20T00:11:15.557Z,7.50
2022-11-20T00:13:47.073Z,7.50
2022-11-20T00:16:17.575Z,7.50
2022-11-20T00:18:46.372Z,7.50
2022-11-20T00:21:15.877Z,7.50
2022-11-20T00:23:44.742Z,7.50
2022-11-20T00:26:16.789Z,7.50
2022-11-20T00:28:46.381Z,7.50
2022-11-20T00:31:16.228Z,7.50
2022-11-20T00:33:45.593Z,7.50
2022-11-20T00:36:15.663Z,7.50
2022-11-20T00:38:45.698Z,7.50
2022-11-20T00:41:18.141Z,7.50
2022-11-20T00:44:01.515Z,7.50
2022-11-20T00:46:36.061Z,7.40
2022-11-20T00:49:06.749Z,7.40
2022-11-20T00:51:37.379Z,7.40
2022-11-20T00:54:08.233Z,7.40
2022-11-20T00:56:37.793Z,7.30
2022-11-20T00:59:06.860Z,7.30
2022-11-20T01:01:37.945Z,7.30
2022-11-20T01:04:12.757Z,7.30
2022-11-20T01:06:42.059Z,7.30
2022-11-20T01:09:16.666Z,7.50
2022-11-20T01:11:49.627Z,7.50
2022-11-20T01:14:23.030Z,7.50
2022-11-20T01:17:03.960Z,7.50
2022-11-20T01:19:34.626Z,7.50
2022-11-20T01:22:07.019Z,7.40
2022-11-20T01:24:36.759Z,7.50
2022-11-20T01:27:07.963Z,7.50
2022-11-20T01:29:37.598Z,7.50
2022-11-20T01:32:38.132Z,7.50
2022-11-20T01:35:15.615Z,7.60
2022-11-20T01:37:48.539Z,7.50
2022-11-20T01:40:18.210Z,7.50
2022-11-20T01:43:20.670Z,7.50
2022-11-20T01:46:18.824Z,7.40
2022-11-20T01:48:54.916Z,7.50
2022-11-20T01:51:32.990Z,7.40
2022-11-20T01:54:05.927Z,7.40
2022-11-20T01:56:41.767Z,7.50
2022-11-20T01:59:25.445Z,7.40
2022-11-20T02:01:54.110Z,7.40
2022-11-20T02:04:28.789Z,7.40
2022-11-20T02:07:01.841Z,7.40
2022-11-20T02:09:39.747Z,7.30
2022-11-20T02:12:30.982Z,7.40
2022-11-20T02:15:04.995Z,7.30
2022-11-20T02:17:39.211Z,7.30
2022-11-20T02:20:09.622Z,7.30
2022-11-20T02:22:52.191Z,7.30
2022-11-20T02:25:26.437Z,7.40
2022-11-20T02:27:56.677Z,7.40
2022-11-20T02:33:22.288Z,7.50
2022-11-20T02:35:53.127Z,7.40
2022-11-20T02:38:31.393Z,7.40
2022-11-20T02:41:17.841Z,7.40
2022-11-20T02:43:57.610Z,7.40
2022-11-20T02:46:25.738Z,7.40
2022-11-20T02:48:56.192Z,7.40
2022-11-20T02:51:27.862Z,7.40
2022-11-20T02:53:58.905Z,7.30
2022-11-20T02:56:31.312Z,7.30
2022-11-20T02:59:00.967Z,7.30
2022-11-20T03:01:39.348Z,7.30
2022-11-20T03:04:07.531Z,7.30
2022-11-20T03:06:36.701Z,7.30
2022-11-20T03:09:10.374Z,7.30
2022-11-20T03:11:44.722Z,7.30
2022-11-20T03:14:16.375Z,7.30
2022-11-20T03:16:54.593Z,7.30
2022-11-20T03:19:25.285Z,7.30
2022-11-20T03:21:53.682Z,7.40
2022-11-20T03:24:27.483Z,7.20
2022-11-20T03:26:59.423Z,7.20
2022-11-20T03:29:30.486Z,7.30
2022-11-20T03:32:15.828Z,7.30
2022-11-20T03:34:44.035Z,7.40
2022-11-20T03:37:14.228Z,7.40
2022-11-20T03:39:43.738Z,7.50
2022-11-20T03:42:29.940Z,7.50
2022-11-20T03:44:59.357Z,7.60
2022-11-20T03:47:35.991Z,7.70
2022-11-20T03:50:04.672Z,7.70
2022-11-20T03:52:37.871Z,7.80
2022-11-20T03:55:07.268Z,7.80
2022-11-20T03:57:41.443Z,7.80
2022-11-20T04:00:11.240Z,7.80
2022-11-20T04:02:47.320Z,7.80
2022-11-20T04:05:18.729Z,7.90
2022-11-20T04:07:47.396Z,7.90
2022-11-20T04:10:19.316Z,7.90
2022-11-20T04:12:56.687Z,7.80
2022-11-20T04:15:27.267Z,7.80
2022-11-20T04:20:41.520Z,7.80
2022-11-20T04:23:13.121Z,7.80
2022-11-20T04:25:51.319Z,7.80
2022-11-20T04:28:21.484Z,7.90
2022-11-20T04:31:00.585Z,7.90
2022-11-20T04:33:37.473Z,7.80
2022-11-20T04:36:24.617Z,7.80
2022-11-20T04:38:57.483Z,7.80
2022-11-20T04:41:29.647Z,7.80
2022-11-20T04:44:05.480Z,7.80
2022-11-20T04:46:41.209Z,7.90
2022-11-20T04:49:18.749Z,7.80
2022-11-20T04:51:55.723Z,7.80
2022-11-20T04:54:24.106Z,7.80
2022-11-20T04:57:02.605Z,7.80
2022-11-20T04:59:32.452Z,7.80
2022-11-20T05:02:08.077Z,7.90
2022-11-20T05:04:37.938Z,7.80
2022-11-20T05:09:57.635Z,7.80
2022-11-20T05:12:29.724Z,7.80
2022-11-20T05:15:04.706Z,7.80
2022-11-20T05:17:36.669Z,7.90
2022-11-20T05:20:07.972Z,7.80
2022-11-20T05:22:38.419Z,7.90
2022-11-20T05:27:59.290Z,7.80
2022-11-20T05:30:28.868Z,7.90
2022-11-20T05:32:57.689Z,7.90
2022-11-20T05:35:26.906Z,8.00
2022-11-20T05:40:40.208Z,7.90
2022-11-20T05:43:10.851Z,7.90
2022-11-20T05:45:44.398Z,7.90
2022-11-20T05:48:29.084Z,7.90
2022-11-20T05:51:00.675Z,7.90
2022-11-20T05:53:31.249Z,8.00
2022-11-20T05:56:08.496Z,8.10
2022-11-20T05:58:36.718Z,8.10
2022-11-20T06:01:20.869Z,8.00
2022-11-20T06:03:52.197Z,8.00
2022-11-20T06:06:29.408Z,8.00
2022-11-20T06:09:00.152Z,7.90
2022-11-20T06:11:30.811Z,8.00
2022-11-20T06:14:02.143Z,7.90
2022-11-20T06:16:34.428Z,8.00
2022-11-20T06:19:17.860Z,8.10
2022-11-20T06:21:46.605Z,8.10
2022-11-20T06:24:17.366Z,8.10
2022-11-20T06:26:48.036Z,8.10
2022-11-20T06:29:16.930Z,8.10
2022-11-20T06:31:49.038Z,8.00
2022-11-20T06:34:18.625Z,8.00
2022-11-20T06:36:46.978Z,8.00
2022-11-20T06:39:29.600Z,8.00
2022-11-20T06:41:59.536Z,8.00
2022-11-20T06:44:38.786Z,8.00
2022-11-20T06:47:13.417Z,7.90
2022-11-20T06:49:42.922Z,7.90
2022-11-20T06:52:24.895Z,7.90
2022-11-20T06:54:54.718Z,7.80
2022-11-20T06:57:28.530Z,7.80
2022-11-20T07:00:06.430Z,7.90
2022-11-20T07:02:42.066Z,7.80
2022-11-20T07:05:11.488Z,7.80
2022-11-20T07:07:39.917Z,7.80
2022-11-20T07:10:09.405Z,7.80
2022-11-20T07:12:40.745Z,7.90
2022-11-20T07:15:12.215Z,7.90
2022-11-20T07:17:51.794Z,8.00
2022-11-20T07:20:23.604Z,8.00
2022-11-20T07:23:07.890Z,8.10
2022-11-20T07:25:40.958Z,8.10
2022-11-20T07:28:13.387Z,8.10
2022-11-20T07:30:42.681Z,8.20
2022-11-20T07:33:12.981Z,8.20
2022-11-20T07:35:41.647Z,8.20
2022-11-20T07:38:17.476Z,8.30
2022-11-20T07:40:50.012Z,8.20
2022-11-20T07:43:19.740Z,8.20
2022-11-20T07:45:48.097Z,8.10
2022-11-20T07:48:33.300Z,8.20
2022-11-20T07:51:10.150Z,8.20
2022-11-20T07:53:40.763Z,8.30
2022-11-20T07:56:11.813Z,8.30
2022-11-20T07:58:42.564Z,8.30
2022-11-20T08:01:12.727Z,8.40
2022-11-20T08:03:48.242Z,8.40
2022-11-20T08:06:19.156Z,8.50
2022-11-20T08:08:52.210Z,8.40
2022-11-20T08:11:40.903Z,8.30
2022-11-20T08:14:14.260Z,8.40
2022-11-20T08:16:51.373Z,8.30
2022-11-20T08:19:26.667Z,8.30
2022-11-20T08:22:08.537Z,8.30
2022-11-20T08:24:39.069Z,8.20
2022-11-20T08:27:10.427Z,8.10
2022-11-20T08:29:41.234Z,8.00
2022-11-20T08:32:12.975Z,7.90
2022-11-20T08:34:54.408Z,7.90
2022-11-20T08:37:37.717Z,7.80
2022-11-20T08:40:19.611Z,7.80
2022-11-20T08:42:51.012Z,7.70
2022-11-20T08:45:37.620Z,7.70
2022-11-20T08:48:08.142Z,7.80
2022-11-20T08:50:40.075Z,7.80
2022-11-20T08:53:26.048Z,7.80
2022-11-20T08:55:56.330Z,8.00
2022-11-20T08:58:28.336Z,8.20
2022-11-20T09:00:58.899Z,8.20
2022-11-20T09:03:33.018Z,8.30
2022-11-20T09:06:21.569Z,8.30
2022-11-20T09:08:53.510Z,8.40
2022-11-20T09:11:21.673Z,8.40
2022-11-20T09:14:01.071Z,8.40
2022-11-20T09:16:30.761Z,8.50
2022-11-20T09:21:59.684Z,8.60
2022-11-20T09:24:38.711Z,8.50
2022-11-20T09:27:17.269Z,8.60
2022-11-20T09:29:46.641Z,8.50
2022-11-20T09:35:08.761Z,8.30
2022-11-20T09:37:41.180Z,8.20
2022-11-20T09:40:37.530Z,8.30
2022-11-20T09:43:16.009Z,8.30
2022-11-20T09:46:14.025Z,8.40
2022-11-20T09:49:00.909Z,8.50
2022-11-20T09:52:04.539Z,8.60
2022-11-20T09:54:51.455Z,8.50
2022-11-20T09:57:29.324Z,8.50
2022-11-20T10:00:05.753Z,8.50
2022-11-20T10:02:44.797Z,8.60
2022-11-20T10:05:17.518Z,8.60
2022-11-20T10:07:56.437Z,8.60
2022-11-20T10:10:33.702Z,8.60
2022-11-20T10:13:22.417Z,8.70
2022-11-20T10:16:05.006Z,8.80
2022-11-20T10:18:49.000Z,8.90
2022-11-20T10:21:26.006Z,9.10
2022-11-20T10:24:06.652Z,9.10
2022-11-20T10:26:45.585Z,9.00
2022-11-20T10:29:15.859Z,9.10
2022-11-20T10:31:46.440Z,9.00
2022-11-20T10:34:23.990Z,9.00
2022-11-20T10:36:57.431Z,9.00
2022-11-20T10:39:34.898Z,8.80
2022-11-20T10:42:06.778Z,8.90
2022-11-20T10:44:56.539Z,9.00
2022-11-20T10:47:25.284Z,9.10
2022-11-20T10:49:56.172Z,8.90
2022-11-20T10:52:34.039Z,8.90
2022-11-20T10:55:13.261Z,9.00
2022-11-20T10:57:54.056Z,8.90
2022-11-20T11:00:22.147Z,8.90
2022-11-20T11:02:52.343Z,8.90
2022-11-20T11:05:40.328Z,8.80
2022-11-20T11:08:16.982Z,8.80
2022-11-20T11:10:54.898Z,8.70
2022-11-20T11:13:27.752Z,8.70
2022-11-20T11:15:56.918Z,8.70
2022-11-20T11:18:32.234Z,8.60
2022-11-20T11:21:02.407Z,8.70
2022-11-20T11:23:36.105Z,8.80
2022-11-20T11:26:06.774Z,8.90
2022-11-20T11:28:40.298Z,9.10
2022-11-20T11:31:08.454Z,9.40
2022-11-20T11:33:36.967Z,9.60
2022-11-20T11:36:17.641Z,9.80
2022-11-20T11:38:46.757Z,9.90
2022-11-20T11:41:20.404Z,10.00
2022-11-20T11:44:27.905Z,10.20
2022-11-20T11:46:58.580Z,10.30
2022-11-20T11:49:26.729Z,10.40
2022-11-20T11:52:15.846Z,10.30
2022-11-20T11:54:50.127Z,10.30
2022-11-20T11:57:25.925Z,10.30
2022-11-20T12:00:03.747Z,10.40
2022-11-20T12:02:38.413Z,10.50
2022-11-20T12:05:18.768Z,10.40
2022-11-20T12:07:49.981Z,10.30
2022-11-20T12:10:23.837Z,10.40
2022-11-20T12:12:58.651Z,10.40
2022-11-20T12:15:35.635Z,10.70
2022-11-20T12:18:04.033Z,10.60
2022-11-20T12:20:44.028Z,10.80
2022-11-20T12:23:18.913Z,10.60
2022-11-20T12:25:50.763Z,10.60
2022-11-20T12:28:38.367Z,10.70
2022-11-20T12:31:39.937Z,10.10
2022-11-20T12:34:35.791Z,10.10
2022-11-20T12:37:11.229Z,9.90
2022-11-20T12:39:43.593Z,9.90
2022-11-20T12:42:43.904Z,9.70
2022-11-20T12:45:33.170Z,9.80
2022-11-20T12:48:26.606Z,9.80
2022-11-20T12:51:15.035Z,9.70
2022-11-20T12:53:50.527Z,9.50
2022-11-20T12:56:30.828Z,9.50
2022-11-20T12:59:11.847Z,9.50
2022-11-20T13:01:48.907Z,9.30
2022-11-20T13:04:34.789Z,9.30
2022-11-20T13:07:04.659Z,9.30
2022-11-20T13:09:36.172Z,9.30
2022-11-20T13:12:08.283Z,9.30
2022-11-20T13:14:42.694Z,9.40
2022-11-20T13:17:16.761Z,9.60
2022-11-20T13:19:50.943Z,9.70
2022-11-20T13:22:27.513Z,9.60
2022-11-20T13:24:55.636Z,9.70
2022-11-20T13:27:24.842Z,9.90
2022-11-20T13:30:15.260Z,9.50
2022-11-20T13:32:51.610Z,9.50
2022-11-20T13:35:30.380Z,9.70
2022-11-20T13:38:04.166Z,9.80
2022-11-20T13:40:32.435Z,9.80
2022-11-20T13:43:11.258Z,9.90
2022-11-20T13:45:39.433Z,9.90
2022-11-20T13:48:22.634Z,9.90
2022-11-20T13:51:03.765Z,9.80
2022-11-20T13:53:47.783Z,9.60
2022-11-20T13:56:26.491Z,9.60
2022-11-20T13:59:05.482Z,9.40
2022-11-20T14:01:35.641Z,9.40
2022-11-20T14:04:10.427Z,9.40
2022-11-20T14:06:45.680Z,9.30
2022-11-20T14:09:15.324Z,9.30
2022-11-20T14:11:49.444Z,9.20
2022-11-20T14:14:20.689Z,9.20
2022-11-20T14:16:50.185Z,9.10
2022-11-20T14:19:31.443Z,9.20
2022-11-20T14:22:18.875Z,9.30
2022-11-20T14:24:47.474Z,9.30
2022-11-20T14:27:18.226Z,9.40
2022-11-20T14:29:48.405Z,9.30
2022-11-20T14:32:19.195Z,9.20
2022-11-20T14:34:49.416Z,9.30
2022-11-20T14:37:23.834Z,9.40
2022-11-20T14:39:54.077Z,9.40
2022-11-20T14:42:24.607Z,9.40
2022-11-20T14:44:55.053Z,9.30
2022-11-20T14:47:26.975Z,9.10
2022-11-20T14:49:57.033Z,9.10
2022-11-20T14:52:28.596Z,9.10
2022-11-20T14:55:01.021Z,9.10
2022-11-20T14:57:30.893Z,9.20
2022-11-20T15:00:21.384Z,9.30
2022-11-20T15:02:51.223Z,9.20
2022-11-20T15:05:21.775Z,9.10
2022-11-20T15:07:53.147Z,9.00
2022-11-20T15:10:26.282Z,9.00
2022-11-20T15:12:57.860Z,9.00
2022-11-20T15:15:30.401Z,8.90
2022-11-20T15:17:58.956Z,8.90
2022-11-20T15:20:34.561Z,9.00
2022-11-20T15:23:04.122Z,8.90
2022-11-20T15:25:32.240Z,9.00
2022-11-20T15:28:00.410Z,8.90
2022-11-20T15:30:28.538Z,8.90
2022-11-20T15:32:56.671Z,8.90
2022-11-20T15:35:24.800Z,8.80
2022-11-20T15:37:52.968Z,8.80
2022-11-20T15:40:22.477Z,8.80
2022-11-20T15:43:11.370Z,8.80
2022-11-20T15:45:44.847Z,8.80
2022-11-20T15:48:15.831Z,8.70
2022-11-20T15:50:52.013Z,8.70
2022-11-20T15:53:20.105Z,8.80
2022-11-20T15:55:49.587Z,8.70
2022-11-20T15:58:18.737Z,8.70
2022-11-20T16:00:47.032Z,8.70
2022-11-20T16:03:15.887Z,8.70
2022-11-20T16:05:43.977Z,8.70
2022-11-20T16:08:12.307Z,8.80
2022-11-20T16:10:40.705Z,8.80
2022-11-20T16:13:31.799Z,8.80
2022-11-20T16:16:01.736Z,8.80
2022-11-20T16:18:29.895Z,8.80
2022-11-20T16:20:58.385Z,8.80
2022-11-20T16:23:26.754Z,8.80
2022-11-20T16:25:54.926Z,8.80
2022-11-20T16:28:24.419Z,8.80
2022-11-20T16:30:52.560Z,8.80
2022-11-20T16:33:20.737Z,8.70
2022-11-20T16:35:48.889Z,8.60
2022-11-20T16:38:17.051Z,8.60
2022-11-20T16:40:45.220Z,8.60
2022-11-20T16:43:16.259Z,8.60
2022-11-20T16:45:46.641Z,8.60
2022-11-20T16:48:16.547Z,8.50
2022-11-20T16:50:50.138Z,8.60
2022-11-20T16:53:19.271Z,8.60
2022-11-20T16:55:48.203Z,8.60
2022-11-20T16:58:16.725Z,8.60
2022-11-20T17:00:51.369Z,8.50
2022-11-20T17:03:21.088Z,8.50
2022-11-20T17:05:49.353Z,8.50
2022-11-20T17:08:17.540Z,8.50
2022-11-20T17:10:45.687Z,8.50
2022-11-20T17:13:13.844Z,8.50
2022-11-20T17:15:41.949Z,8.50
2022-11-20T17:18:11.451Z,8.50
2022-11-20T17:20:40.762Z,8.50
2022-11-20T17:23:08.929Z,8.60
2022-11-20T17:25:37.386Z,8.60
2022-11-20T17:28:09.159Z,8.60
2022-11-20T17:30:39.281Z,8.60
2022-11-20T17:35:52.123Z,8.60
2022-11-20T17:38:20.255Z,8.60
2022-11-20T17:40:48.430Z,8.50
2022-11-20T17:43:16.665Z,8.60
2022-11-20T17:45:45.176Z,8.60
2022-11-20T17:48:13.592Z,8.50
2022-11-20T17:50:41.703Z,8.50
2022-11-20T17:53:11.245Z,8.50
2022-11-20T17:55:56.570Z,8.50
2022-11-20T17:58:24.747Z,8.50
2022-11-20T18:00:52.855Z,8.40
2022-11-20T18:03:21.056Z,8.40
2022-11-20T18:05:49.188Z,8.30
2022-11-20T18:08:18.805Z,8.20
2022-11-20T18:10:47.162Z,8.20
2022-11-20T18:13:19.460Z,8.00
2022-11-20T18:15:49.162Z,7.80
2022-11-20T18:18:19.639Z,7.50
2022-11-20T18:20:54.603Z,7.30
2022-11-20T18:23:28.855Z,7.20
2022-11-20T18:26:05.309Z,7.00
2022-11-20T18:28:33.758Z,6.80
2022-11-20T18:31:08.971Z,6.80
2022-11-20T18:33:37.596Z,6.80
2022-11-20T18:36:18.519Z,6.70
2022-11-20T18:38:55.588Z,6.60
2022-11-20T18:41:43.115Z,6.60
2022-11-20T18:44:33.227Z,6.70
2022-11-20T18:47:09.584Z,6.70
2022-11-20T18:49:42.450Z,6.70
2022-11-20T18:52:10.579Z,6.60
2022-11-20T18:54:40.081Z,6.60
2022-11-20T18:57:10.327Z,6.70
2022-11-20T18:59:38.658Z,6.70
2022-11-20T19:02:07.906Z,6.60
2022-11-20T19:04:38.613Z,6.70
2022-11-20T19:07:11.948Z,6.70
2022-11-20T19:09:45.231Z,6.80
2022-11-20T19:12:14.880Z,6.80
2022-11-20T19:14:47.538Z,6.80
2022-11-20T19:17:19.916Z,6.70
2022-11-20T19:19:50.504Z,6.70
2022-11-20T19:22:21.431Z,6.70
2022-11-20T19:24:54.126Z,6.80
2022-11-20T19:27:23.194Z,6.60
2022-11-20T19:29:51.327Z,6.70
2022-11-20T19:32:19.576Z,6.80
2022-11-20T19:34:47.687Z,6.80
2022-11-20T19:37:15.815Z,6.70
2022-11-20T19:39:43.913Z,6.70
2022-11-20T19:42:13.611Z,6.70
2022-11-20T19:44:41.722Z,6.80
2022-11-20T19:47:14.851Z,6.80
2022-11-20T19:49:49.356Z,6.90
2022-11-20T19:52:19.877Z,6.80
2022-11-20T19:54:49.765Z,6.80
2022-11-20T19:57:24.101Z,6.80
2022-11-20T19:59:54.254Z,6.80
2022-11-20T20:02:24.068Z,6.80
2022-11-20T20:04:52.205Z,6.80
2022-11-20T20:07:20.313Z,6.80
2022-11-20T20:09:48.504Z,6.70
2022-11-20T20:12:18.057Z,6.80
2022-11-20T20:14:46.165Z,6.80
2022-11-20T20:17:14.270Z,6.80
2022-11-20T20:19:42.511Z,6.60
2022-11-20T20:22:10.679Z,6.60
2022-11-20T20:24:38.825Z,6.60
2022-11-20T20:27:06.952Z,6.50
2022-11-20T20:29:36.512Z,6.50
2022-11-20T20:32:04.698Z,6.40
2022-11-20T20:34:32.822Z,6.40
2022-11-20T20:37:00.978Z,6.40
2022-11-20T20:39:29.275Z,6.30
2022-11-20T20:41:57.394Z,6.40
2022-11-20T20:44:42.679Z,6.40
2022-11-20T20:47:12.197Z,6.50
2022-11-20T20:49:43.122Z,6.50
2022-11-20T20:52:11.290Z,6.50
2022-11-20T20:54:41.912Z,6.50
2022-11-20T20:57:31.569Z,6.50
2022-11-20T20:59:59.791Z,6.40
2022-11-20T21:02:29.278Z,6.30
2022-11-20T21:04:57.827Z,6.30
2022-11-20T21:07:29.159Z,6.30
2022-11-20T21:09:57.689Z,6.30
2022-11-20T21:12:26.031Z,6.30
2022-11-20T21:14:56.760Z,6.30
2022-11-20T21:17:26.245Z,6.30
2022-11-20T21:20:38.359Z,6.40
2022-11-20T21:23:10.089Z,6.50
2022-11-20T21:25:47.916Z,6.60
2022-11-20T21:28:18.353Z,6.60
2022-11-20T21:30:46.867Z,6.70
2022-11-20T21:33:16.530Z,6.70
2022-11-20T21:36:03.617Z,6.70
2022-11-20T21:38:31.748Z,6.60
2022-11-20T21:41:00.339Z,6.60
2022-11-20T21:43:29.179Z,6.60
2022-11-20T21:46:03.750Z,6.70
2022-11-20T21:48:53.420Z,6.70
2022-11-20T21:51:58.779Z,6.80
2022-11-20T21:54:27.102Z,6.80
2022-11-20T21:56:55.350Z,6.80
2022-11-20T21:59:26.506Z,6.80
2022-11-20T22:01:54.892Z,6.70
2022-11-20T22:04:23.457Z,6.80
2022-11-20T22:06:53.151Z,6.80
2022-11-20T22:09:21.380Z,6.80
2022-11-20T22:11:49.515Z,6.90
2022-11-20T22:14:22.824Z,6.90
2022-11-20T22:16:59.921Z,6.90
2022-11-20T22:19:31.868Z,6.90
2022-11-20T22:22:19.273Z,6.90
2022-11-20T22:25:15.285Z,7.00
2022-11-20T22:27:47.737Z,7.10
2022-11-20T22:30:40.415Z,7.10
2022-11-20T22:33:52.480Z,7.10
2022-11-20T22:36:31.413Z,7.20
2022-11-20T22:39:23.267Z,7.20
2022-11-20T22:41:51.494Z,7.20
2022-11-20T22:44:19.612Z,7.10
2022-11-20T22:46:47.761Z,7.00
2022-11-20T22:49:16.032Z,7.00
2022-11-20T22:51:44.137Z,7.10
2022-11-20T22:54:41.818Z,7.00
2022-11-20T22:57:13.524Z,7.00
2022-11-20T22:59:41.827Z,7.00
2022-11-20T23:02:09.931Z,6.90
2022-11-20T23:04:38.259Z,6.90
2022-11-20T23:07:06.624Z,6.90
2022-11-20T23:09:36.180Z,6.90
2022-11-20T23:12:04.309Z,6.90
2022-11-20T23:14:33.346Z,6.90
2022-11-20T23:17:01.647Z,6.90
2022-11-20T23:19:29.757Z,6.90
2022-11-20T23:21:57.890Z,7.00
2022-11-20T23:24:26.186Z,7.00
2022-11-20T23:26:55.878Z,6.90
2022-11-20T23:29:24.090Z,7.00
2022-11-20T23:31:52.193Z,7.00
2022-11-20T23:34:20.642Z,7.00
2022-11-20T23:36:48.742Z,7.00
2022-11-20T23:39:16.855Z,7.10
2022-11-20T23:41:44.990Z,7.10
2022-11-20T23:44:14.504Z,7.10
2022-11-20T23:46:42.606Z,7.20
2022-11-20T23:49:10.861Z,7.30
2022-11-20T23:51:39.026Z,7.30
2022-11-20T23:54:07.625Z,7.40
2022-11-20T23:56:35.873Z,7.40
2022-11-20T23:59:07.619Z,7.40
